Time;durP1;ratioP1;P1;durP2;ratioP2;P2;SDS_P1;SDS_P2;PMS_P1;PMS_P2;Temp;Humidity;BMP_temperature;BMP_pressure;BME280_temperature;BME280_humidity;BME280_pressure;Samples;Min_cycle;Max_cycle;Signal;HPM_P1;HPM_P2
2021/08/08 00:01:43;;;;;;;2.90;1.50;;;;;;;;;;4950930;28;20503;-75
2021/08/08 00:04:09;;;;;;;3.50;1.60;;;;;;;;;;4942379;28;22440;-75
2021/08/08 00:06:36;;;;;;;2.17;1.27;;;;;;;;;;4924691;29;20137;-75
2021/08/08 00:09:03;;;;;;;2.13;1.10;;;;;;;;;;4914018;28;20109;-75
2021/08/08 00:11:29;;;;;;;2.15;1.40;;;;;;;;;;4942391;28;20440;-76
2021/08/08 00:13:57;;;;;;;3.70;1.60;;;;;;;;;;4939939;28;20054;-77
2021/08/08 00:16:25;;;;;;;3.78;1.70;;;;;;;;;;4943314;28;20067;-75
2021/08/08 00:18:51;;;;;;;2.95;1.60;;;;;;;;;;4940198;28;20062;-75
2021/08/08 00:21:18;;;;;;;2.65;1.50;;;;;;;;;;4942191;29;20130;-76
2021/08/08 00:23:44;;;;;;;3.17;1.40;;;;;;;;;;4940893;29;20168;-76
2021/08/08 00:26:10;;;;;;;2.50;1.50;;;;;;;;;;4943015;28;20047;-76
2021/08/08 00:28:37;;;;;;;2.40;1.42;;;;;;;;;;4943635;28;20062;-77
2021/08/08 00:31:03;;;;;;;3.22;1.45;;;;;;;;;;4941584;29;22442;-77
2021/08/08 00:33:30;;;;;;;1.88;1.30;;;;;;;;;;4940738;28;20043;-76
2021/08/08 00:35:56;;;;;;;4.30;1.60;;;;;;;;;;4925449;29;20114;-76
2021/08/08 00:38:23;;;;;;;2.85;1.45;;;;;;;;;;4941752;28;20075;-75
2021/08/08 00:40:49;;;;;;;3.72;1.35;;;;;;;;;;4937491;28;20078;-75
2021/08/08 00:43:15;;;;;;;4.70;1.23;;;;;;;;;;4941733;28;20115;-76
2021/08/08 00:45:42;;;;;;;2.03;1.30;;;;;;;;;;4938856;29;20063;-75
2021/08/08 00:48:08;;;;;;;2.80;1.35;;;;;;;;;;4940259;28;20541;-75
2021/08/08 00:50:35;;;;;;;2.28;1.20;;;;;;;;;;4942080;28;20071;-75
2021/08/08 00:53:01;;;;;;;2.72;1.48;;;;;;;;;;4937733;28;20059;-75
2021/08/08 00:55:27;;;;;;;2.67;1.45;;;;;;;;;;4940885;28;20070;-75
2021/08/08 00:57:54;;;;;;;2.33;1.20;;;;;;;;;;4937564;29;20811;-75
2021/08/08 01:00:20;;;;;;;3.35;1.52;;;;;;;;;;4941743;29;20122;-75
2021/08/08 01:02:49;;;;;;;2.63;1.58;;;;;;;;;;4923938;29;20063;-75
2021/08/08 01:05:19;;;;;;;2.85;1.30;;;;;;;;;;4940327;28;20475;-75
2021/08/08 01:07:48;;;;;;;2.30;1.30;;;;;;;;;;4939472;28;20051;-75
2021/08/08 01:10:16;;;;;;;2.30;1.13;;;;;;;;;;4940160;28;20043;-76
2021/08/08 01:12:42;;;;;;;2.20;1.30;;;;;;;;;;4937866;28;20070;-76
2021/08/08 01:15:09;;;;;;;2.05;1.38;;;;;;;;;;4937554;28;20079;-76
2021/08/08 01:17:38;;;;;;;2.53;1.20;;;;;;;;;;4941049;28;20034;-75
2021/08/08 01:20:06;;;;;;;2.22;1.25;;;;;;;;;;4939626;28;20138;-75
2021/08/08 01:22:33;;;;;;;1.77;1.10;;;;;;;;;;4929062;29;21003;-76
2021/08/08 01:25:01;;;;;;;2.17;1.23;;;;;;;;;;4945511;28;20071;-76
2021/08/08 01:27:28;;;;;;;4.93;1.33;;;;;;;;;;4942676;28;20059;-75
2021/08/08 01:29:55;;;;;;;2.35;1.27;;;;;;;;;;4941022;28;20063;-75
2021/08/08 01:32:22;;;;;;;3.00;1.30;;;;;;;;;;4945558;29;20059;-75
2021/08/08 01:34:49;;;;;;;2.10;1.15;;;;;;;;;;4944836;28;20055;-74
2021/08/08 01:37:19;;;;;;;2.08;1.33;;;;;;;;;;4944536;28;21443;-76
2021/08/08 01:39:48;;;;;;;4.35;1.50;;;;;;;;;;4944052;29;20113;-75
2021/08/08 01:42:15;;;;;;;3.35;1.40;;;;;;;;;;4925897;28;20192;-76
2021/08/08 01:44:46;;;;;;;3.17;1.30;;;;;;;;;;4942762;28;20122;-76
2021/08/08 01:47:13;;;;;;;2.63;1.50;;;;;;;;;;4927184;28;21206;-76
2021/08/08 01:49:43;;;;;;;1.77;1.10;;;;;;;;;;4944875;28;20421;-76
2021/08/08 01:52:10;;;;;;;2.88;1.30;;;;;;;;;;4943668;28;20527;-76
2021/08/08 01:54:36;;;;;;;2.53;1.10;;;;;;;;;;4943231;28;20035;-76
2021/08/08 01:57:03;;;;;;;2.38;1.20;;;;;;;;;;4944258;28;20070;-76
2021/08/08 01:59:29;;;;;;;2.45;1.27;;;;;;;;;;4943688;28;20166;-76
2021/08/08 02:01:56;;;;;;;1.60;1.00;;;;;;;;;;4944212;28;20062;-76
2021/08/08 02:04:25;;;;;;;2.05;1.17;;;;;;;;;;4941995;28;20725;-74
2021/08/08 02:06:52;;;;;;;2.92;1.30;;;;;;;;;;4943091;28;20075;-75
2021/08/08 02:09:19;;;;;;;1.88;1.20;;;;;;;;;;4942360;28;20063;-74
2021/08/08 02:11:45;;;;;;;1.52;1.00;;;;;;;;;;4943139;28;20067;-75
2021/08/08 02:14:12;;;;;;;2.90;1.20;;;;;;;;;;4942665;28;20530;-75
2021/08/08 02:16:39;;;;;;;2.85;1.60;;;;;;;;;;4942533;28;20191;-75
2021/08/08 02:19:05;;;;;;;2.40;1.17;;;;;;;;;;4941137;28;20070;-75
2021/08/08 02:21:32;;;;;;;1.75;1.35;;;;;;;;;;4940766;28;20154;-75
2021/08/08 02:23:59;;;;;;;2.55;1.23;;;;;;;;;;4943368;28;20455;-75
2021/08/08 02:26:26;;;;;;;2.45;1.42;;;;;;;;;;4945527;28;20102;-75
2021/08/08 02:28:52;;;;;;;1.75;1.20;;;;;;;;;;4943033;28;20068;-74
2021/08/08 02:31:19;;;;;;;1.90;1.27;;;;;;;;;;4946387;28;20134;-75
2021/08/08 02:33:48;;;;;;;2.50;1.10;;;;;;;;;;4943179;28;20822;-76
2021/08/08 02:36:15;;;;;;;2.25;1.30;;;;;;;;;;4945276;28;20059;-75
2021/08/08 02:38:41;;;;;;;2.88;1.20;;;;;;;;;;4945686;28;20059;-75
2021/08/08 02:41:08;;;;;;;2.35;1.20;;;;;;;;;;4943360;28;20062;-75
2021/08/08 02:43:36;;;;;;;2.10;1.38;;;;;;;;;;4943381;28;20035;-75
2021/08/08 02:46:02;;;;;;;2.92;1.30;;;;;;;;;;4943627;28;20174;-75
2021/08/08 02:48:28;;;;;;;3.10;1.20;;;;;;;;;;4943532;28;20066;-75
2021/08/08 02:50:55;;;;;;;1.67;1.10;;;;;;;;;;4943543;28;20074;-75
2021/08/08 02:53:21;;;;;;;1.55;0.98;;;;;;;;;;4942557;28;20063;-75
2021/08/08 02:55:48;;;;;;;2.13;1.02;;;;;;;;;;4941666;28;20063;-75
2021/08/08 02:58:14;;;;;;;2.17;1.35;;;;;;;;;;4941015;29;20147;-77
2021/08/08 03:00:40;;;;;;;2.08;1.10;;;;;;;;;;4943998;29;20066;-75
2021/08/08 03:03:07;;;;;;;1.77;1.10;;;;;;;;;;4942192;28;20051;-74
2021/08/08 03:05:33;;;;;;;1.83;1.10;;;;;;;;;;4940021;29;20078;-74
2021/08/08 03:08:00;;;;;;;2.67;1.02;;;;;;;;;;4944381;28;20063;-75
2021/08/08 03:10:26;;;;;;;2.40;1.42;;;;;;;;;;4944268;28;20066;-74
2021/08/08 03:12:52;;;;;;;1.80;1.10;;;;;;;;;;4942660;28;20458;-75
2021/08/08 03:15:19;;;;;;;2.05;1.33;;;;;;;;;;4943612;29;20059;-75
2021/08/08 03:17:45;;;;;;;2.08;0.95;;;;;;;;;;4940548;28;20109;-75
2021/08/08 03:20:12;;;;;;;1.85;1.10;;;;;;;;;;4944217;28;20074;-75
2021/08/08 03:22:38;;;;;;;1.98;1.17;;;;;;;;;;4922086;29;20094;-75
2021/08/08 03:25:05;;;;;;;2.00;1.08;;;;;;;;;;4943775;28;20675;-75
2021/08/08 03:27:32;;;;;;;2.00;1.00;;;;;;;;;;4943453;29;20668;-75
2021/08/08 03:29:58;;;;;;;1.70;1.00;;;;;;;;;;4942994;29;20070;-74
2021/08/08 03:32:25;;;;;;;1.85;1.00;;;;;;;;;;4941558;28;20460;-75
2021/08/08 03:34:51;;;;;;;2.03;1.30;;;;;;;;;;4943456;28;20067;-75
2021/08/08 03:37:18;;;;;;;3.15;1.10;;;;;;;;;;4942040;28;20055;-74
2021/08/08 03:39:46;;;;;;;1.65;1.10;;;;;;;;;;4944052;28;20059;-75
2021/08/08 03:42:12;;;;;;;2.17;0.90;;;;;;;;;;4936549;28;20768;-74
2021/08/08 03:44:39;;;;;;;1.90;1.10;;;;;;;;;;4941240;28;20079;-75
2021/08/08 03:47:05;;;;;;;2.88;1.23;;;;;;;;;;4942507;28;20067;-74
2021/08/08 03:49:31;;;;;;;1.30;0.93;;;;;;;;;;4943662;28;20521;-74
2021/08/08 03:51:58;;;;;;;2.22;1.20;;;;;;;;;;4941140;29;20128;-74
2021/08/08 03:54:24;;;;;;;1.58;0.90;;;;;;;;;;4942301;28;20039;-74
2021/08/08 03:56:51;;;;;;;1.48;0.90;;;;;;;;;;4943657;28;20051;-75
2021/08/08 03:59:17;;;;;;;2.00;1.02;;;;;;;;;;4944397;29;20145;-75
2021/08/08 04:01:43;;;;;;;1.35;0.80;;;;;;;;;;4944058;28;20058;-75
2021/08/08 04:04:10;;;;;;;1.30;0.90;;;;;;;;;;4942874;28;20595;-75
2021/08/08 04:06:36;;;;;;;2.75;0.93;;;;;;;;;;4944396;28;20090;-75
2021/08/08 04:09:03;;;;;;;1.55;1.00;;;;;;;;;;4940681;28;20066;-75
2021/08/08 04:11:29;;;;;;;1.90;1.10;;;;;;;;;;4941968;28;20059;-76
2021/08/08 04:13:55;;;;;;;1.40;0.90;;;;;;;;;;4938971;28;20073;-75
2021/08/08 04:16:22;;;;;;;1.67;0.93;;;;;;;;;;4941703;29;20559;-76
2021/08/08 04:18:48;;;;;;;2.60;1.20;;;;;;;;;;4941465;28;20071;-75
2021/08/08 04:21:15;;;;;;;2.33;0.98;;;;;;;;;;4943718;28;20071;-75
2021/08/08 04:23:41;;;;;;;1.92;1.13;;;;;;;;;;4941290;28;20149;-75
2021/08/08 04:26:08;;;;;;;2.22;1.10;;;;;;;;;;4942457;28;20067;-76
2021/08/08 04:28:39;;;;;;;1.55;1.00;;;;;;;;;;4941609;29;20071;-76
2021/08/08 04:31:05;;;;;;;;;;;;;;;;;;4940455;28;20055;-76
2021/08/08 04:33:32;;;;;;;1.75;0.90;;;;;;;;;;4943351;28;19957;-75
2021/08/08 04:35:58;;;;;;;3.03;1.33;;;;;;;;;;4942137;29;20480;-75
2021/08/08 04:38:24;;;;;;;2.50;1.00;;;;;;;;;;4924705;28;20118;-75
2021/08/08 04:40:51;;;;;;;1.65;0.85;;;;;;;;;;4940907;28;20063;-76
2021/08/08 04:43:17;;;;;;;1.23;0.90;;;;;;;;;;4940850;28;20059;-76
2021/08/08 04:45:44;;;;;;;2.35;1.00;;;;;;;;;;4925750;29;20067;-76
2021/08/08 04:48:10;;;;;;;2.72;0.85;;;;;;;;;;4939245;28;20059;-75
2021/08/08 04:50:37;;;;;;;1.58;0.90;;;;;;;;;;4941196;29;20077;-75
2021/08/08 04:53:03;;;;;;;1.52;1.00;;;;;;;;;;4938328;28;20139;-74
2021/08/08 04:55:29;;;;;;;1.60;0.80;;;;;;;;;;4941935;29;20118;-73
2021/08/08 04:57:56;;;;;;;3.35;1.00;;;;;;;;;;4941787;29;20063;-75
2021/08/08 05:00:22;;;;;;;1.98;0.82;;;;;;;;;;4944264;29;20063;-74
2021/08/08 05:02:49;;;;;;;1.70;1.10;;;;;;;;;;4942098;28;20066;-75
2021/08/08 05:05:16;;;;;;;1.52;0.90;;;;;;;;;;4941474;28;20132;-75
2021/08/08 05:07:44;;;;;;;1.80;0.90;;;;;;;;;;4939689;28;20125;-75
2021/08/08 05:10:12;;;;;;;2.80;1.17;;;;;;;;;;4944353;28;21594;-74
2021/08/08 05:12:39;;;;;;;2.40;1.00;;;;;;;;;;4943890;29;20040;-74
2021/08/08 05:15:06;;;;;;;1.40;0.80;;;;;;;;;;4942285;28;20062;-74
2021/08/08 05:17:32;;;;;;;1.23;0.90;;;;;;;;;;4941951;28;20079;-74
2021/08/08 05:19:59;;;;;;;2.55;0.95;;;;;;;;;;4942742;28;20067;-74
2021/08/08 05:22:25;;;;;;;2.13;0.93;;;;;;;;;;4942910;29;20074;-75
2021/08/08 05:24:53;;;;;;;1.50;1.00;;;;;;;;;;4943534;28;20126;-75
2021/08/08 05:27:19;;;;;;;3.42;1.17;;;;;;;;;;4940943;28;20063;-74
2021/08/08 05:29:46;;;;;;;1.85;0.98;;;;;;;;;;4942800;28;20129;-75
2021/08/08 05:32:12;;;;;;;1.77;1.00;;;;;;;;;;4945244;28;20058;-74
2021/08/08 05:34:39;;;;;;;2.95;1.00;;;;;;;;;;4914230;29;20467;-75
2021/08/08 05:37:05;;;;;;;2.60;0.95;;;;;;;;;;4943431;28;20078;-75
2021/08/08 05:39:31;;;;;;;2.53;1.30;;;;;;;;;;4939872;29;20503;-75
2021/08/08 05:41:58;;;;;;;1.80;1.10;;;;;;;;;;4941179;28;20063;-75
2021/08/08 05:44:24;;;;;;;2.53;0.98;;;;;;;;;;4940679;29;20067;-75
2021/08/08 05:46:50;;;;;;;1.55;1.10;;;;;;;;;;4942009;28;20468;-74
2021/08/08 05:49:17;;;;;;;2.45;0.90;;;;;;;;;;4942640;29;20070;-74
2021/08/08 05:51:44;;;;;;;2.10;0.90;;;;;;;;;;4940127;29;20036;-75
2021/08/08 05:54:10;;;;;;;1.75;0.85;;;;;;;;;;4940376;28;20035;-76
2021/08/08 05:56:36;;;;;;;1.77;0.90;;;;;;;;;;4928793;29;20122;-76
2021/08/08 05:59:03;;;;;;;1.48;0.88;;;;;;;;;;4936870;28;20374;-75
2021/08/08 06:01:29;;;;;;;2.72;0.90;;;;;;;;;;4939363;28;20055;-75
2021/08/08 06:03:56;;;;;;;2.45;1.17;;;;;;;;;;4941562;29;20063;-75
2021/08/08 06:06:22;;;;;;;1.73;1.00;;;;;;;;;;4942577;28;20089;-76
2021/08/08 06:08:49;;;;;;;1.35;0.80;;;;;;;;;;4942837;28;20055;-77
2021/08/08 06:11:15;;;;;;;3.00;1.00;;;;;;;;;;4941015;28;20058;-75
2021/08/08 06:13:41;;;;;;;1.48;0.82;;;;;;;;;;4942322;29;20062;-75
2021/08/08 06:16:08;;;;;;;1.70;1.10;;;;;;;;;;4941389;29;20051;-77
2021/08/08 06:18:34;;;;;;;1.33;0.80;;;;;;;;;;4943119;29;20078;-76
2021/08/08 06:21:01;;;;;;;1.55;0.80;;;;;;;;;;4940174;28;20079;-78
2021/08/08 06:23:27;;;;;;;1.45;0.90;;;;;;;;;;4911124;29;20070;-76
2021/08/08 06:25:54;;;;;;;2.65;0.93;;;;;;;;;;4926282;29;20050;-76
2021/08/08 06:28:20;;;;;;;1.23;0.80;;;;;;;;;;4939980;28;20066;-75
2021/08/08 06:30:46;;;;;;;2.30;0.80;;;;;;;;;;4942493;28;20494;-75
2021/08/08 06:33:16;;;;;;;1.20;0.80;;;;;;;;;;4929197;29;20063;-76
2021/08/08 06:35:43;;;;;;;1.30;0.70;;;;;;;;;;4928411;28;20577;-76
2021/08/08 06:38:10;;;;;;;1.50;0.98;;;;;;;;;;4944206;29;20154;-76
2021/08/08 06:40:36;;;;;;;3.30;0.80;;;;;;;;;;4940600;29;20503;-75
2021/08/08 06:43:04;;;;;;;1.83;0.90;;;;;;;;;;4941996;29;20103;-76
2021/08/08 06:45:32;;;;;;;1.95;0.75;;;;;;;;;;4926976;29;20119;-75
2021/08/08 06:47:59;;;;;;;1.50;1.00;;;;;;;;;;4942845;29;20217;-76
2021/08/08 06:50:26;;;;;;;1.63;0.98;;;;;;;;;;4942505;28;20070;-76
2021/08/08 06:52:52;;;;;;;1.88;0.93;;;;;;;;;;4943732;28;20071;-76
2021/08/08 06:55:18;;;;;;;2.25;0.73;;;;;;;;;;4941859;29;20488;-76
2021/08/08 06:57:45;;;;;;;2.80;1.00;;;;;;;;;;4943932;28;20118;-75
2021/08/08 07:00:12;;;;;;;2.22;0.88;;;;;;;;;;4940342;29;21344;-79
2021/08/08 07:02:38;;;;;;;2.80;0.80;;;;;;;;;;4945178;28;20511;-76
2021/08/08 07:05:05;;;;;;;1.10;0.68;;;;;;;;;;4943139;28;20563;-74
2021/08/08 07:07:32;;;;;;;2.17;1.02;;;;;;;;;;4942987;28;20059;-75
2021/08/08 07:09:58;;;;;;;1.10;0.80;;;;;;;;;;4923788;29;20106;-75
2021/08/08 07:12:25;;;;;;;2.55;0.70;;;;;;;;;;4941620;28;20443;-76
2021/08/08 07:14:51;;;;;;;0.90;0.60;;;;;;;;;;4939180;28;20135;-75
2021/08/08 07:17:18;;;;;;;3.03;0.80;;;;;;;;;;4943166;28;20059;-75
2021/08/08 07:19:44;;;;;;;0.75;0.60;;;;;;;;;;4944274;29;20792;-76
2021/08/08 07:22:11;;;;;;;1.40;0.70;;;;;;;;;;4927653;29;20120;-76
2021/08/08 07:24:37;;;;;;;1.20;0.73;;;;;;;;;;4941468;29;20090;-75
2021/08/08 07:27:04;;;;;;;3.35;1.02;;;;;;;;;;4938228;28;20057;-75
2021/08/08 07:29:30;;;;;;;2.40;1.10;;;;;;;;;;4927579;29;20063;-76
2021/08/08 07:31:56;;;;;;;1.90;1.08;;;;;;;;;;4943266;28;20078;-75
2021/08/08 07:34:23;;;;;;;2.72;0.90;;;;;;;;;;4941501;28;20146;-74
2021/08/08 07:36:49;;;;;;;4.40;1.20;;;;;;;;;;4945376;28;20457;-74
2021/08/08 07:39:16;;;;;;;2.33;1.20;;;;;;;;;;4942603;28;20594;-75
2021/08/08 07:41:42;;;;;;;4.47;0.90;;;;;;;;;;4945646;28;20078;-75
2021/08/08 07:44:09;;;;;;;1.45;0.85;;;;;;;;;;4945265;28;20503;-75
2021/08/08 07:46:35;;;;;;;2.15;0.93;;;;;;;;;;4945174;28;20075;-75
2021/08/08 07:49:01;;;;;;;3.05;1.60;;;;;;;;;;4940126;28;20518;-75
2021/08/08 07:51:28;;;;;;;2.03;0.77;;;;;;;;;;4942994;29;20063;-74
2021/08/08 07:53:54;;;;;;;1.65;1.10;;;;;;;;;;4940622;29;20043;-75
2021/08/08 07:56:21;;;;;;;2.40;1.13;;;;;;;;;;4942720;28;20047;-75
2021/08/08 07:58:47;;;;;;;3.30;1.20;;;;;;;;;;4941244;28;20495;-75
2021/08/08 08:01:14;;;;;;;2.08;1.17;;;;;;;;;;4942099;28;20125;-73
2021/08/08 08:03:40;;;;;;;4.07;1.00;;;;;;;;;;4942052;28;20065;-73
2021/08/08 08:06:06;;;;;;;5.03;2.28;;;;;;;;;;4940444;28;21567;-75
2021/08/08 08:08:33;;;;;;;2.85;1.27;;;;;;;;;;4940982;28;20467;-74
2021/08/08 08:10:59;;;;;;;3.70;1.45;;;;;;;;;;4941710;28;20069;-75
2021/08/08 08:13:25;;;;;;;2.55;1.70;;;;;;;;;;4938257;28;20063;-75
2021/08/08 08:15:52;;;;;;;3.90;1.90;;;;;;;;;;4940541;29;20117;-74
2021/08/08 08:18:19;;;;;;;4.40;1.50;;;;;;;;;;4936204;29;20048;-74
2021/08/08 08:20:45;;;;;;;5.90;1.13;;;;;;;;;;4921944;29;20153;-74
2021/08/08 08:23:11;;;;;;;4.00;1.33;;;;;;;;;;4939753;28;20124;-74
2021/08/08 08:25:38;;;;;;;5.65;1.70;;;;;;;;;;4939633;29;20606;-74
2021/08/08 08:28:05;;;;;;;8.18;1.85;;;;;;;;;;4937748;28;20034;-74
2021/08/08 08:30:34;;;;;;;3.08;1.33;;;;;;;;;;4938625;28;20687;-75
2021/08/08 08:33:04;;;;;;;3.50;1.45;;;;;;;;;;4934872;29;20078;-73
2021/08/08 08:35:31;;;;;;;3.50;1.38;;;;;;;;;;4924415;29;20043;-74
2021/08/08 08:37:57;;;;;;;5.40;1.58;;;;;;;;;;4937495;29;20555;-74
2021/08/08 08:40:24;;;;;;;3.58;1.70;;;;;;;;;;4941160;28;20086;-74
2021/08/08 08:42:51;;;;;;;5.07;1.80;;;;;;;;;;4920306;28;20100;-74
2021/08/08 08:45:18;;;;;;;3.25;1.20;;;;;;;;;;4926926;28;20137;-74
2021/08/08 08:47:45;;;;;;;3.10;1.55;;;;;;;;;;4938228;28;20087;-73
2021/08/08 08:50:12;;;;;;;3.25;1.38;;;;;;;;;;4937114;28;22537;-74
2021/08/08 08:52:39;;;;;;;3.10;1.25;;;;;;;;;;4941706;28;20059;-75
2021/08/08 08:55:06;;;;;;;4.50;1.65;;;;;;;;;;4929156;28;20067;-73
2021/08/08 08:57:33;;;;;;;3.00;1.60;;;;;;;;;;4922771;29;20122;-74
2021/08/08 09:00:01;;;;;;;6.35;2.40;;;;;;;;;;4937296;29;20040;-74
2021/08/08 09:02:27;;;;;;;2.15;1.25;;;;;;;;;;4936393;29;20036;-73
2021/08/08 09:04:53;;;;;;;4.00;1.88;;;;;;;;;;4936822;28;20123;-74
2021/08/08 09:07:20;;;;;;;3.00;1.67;;;;;;;;;;4942169;28;20074;-74
2021/08/08 09:09:46;;;;;;;2.30;1.30;;;;;;;;;;4928153;28;20066;-76
2021/08/08 09:12:28;;;;;;;5.95;1.80;;;;;;;;;;4937398;28;20074;-73
2021/08/08 09:14:56;;;;;;;2.63;1.33;;;;;;;;;;4939080;29;20110;-73
2021/08/08 09:17:22;;;;;;;4.28;1.60;;;;;;;;;;4942072;29;20094;-74
2021/08/08 09:19:57;;;;;;;3.03;1.50;;;;;;;;;;4940686;29;20452;-73
2021/08/08 09:22:24;;;;;;;4.68;1.48;;;;;;;;;;4944492;28;20043;-74
2021/08/08 09:24:51;;;;;;;3.85;1.30;;;;;;;;;;4942572;29;20043;-73
2021/08/08 09:27:17;;;;;;;6.38;1.90;;;;;;;;;;4941039;28;20070;-73
2021/08/08 09:29:44;;;;;;;4.70;1.73;;;;;;;;;;4940509;28;20127;-73
2021/08/08 09:32:11;;;;;;;6.55;1.90;;;;;;;;;;4928855;28;20062;-74
2021/08/08 09:34:38;;;;;;;3.13;1.85;;;;;;;;;;4940529;28;20071;-74
2021/08/08 09:37:06;;;;;;;4.93;1.75;;;;;;;;;;4937113;28;20028;-73
2021/08/08 09:39:41;;;;;;;5.57;1.73;;;;;;;;;;4939930;28;20110;-75
2021/08/08 09:42:14;;;;;;;7.32;1.70;;;;;;;;;;4938192;28;20070;-74
2021/08/08 09:44:53;;;;;;;7.50;1.75;;;;;;;;;;4943596;28;20106;-73
2021/08/08 09:47:20;;;;;;;3.15;1.30;;;;;;;;;;4940405;28;20086;-75
2021/08/08 09:49:59;;;;;;;2.42;1.33;;;;;;;;;;4925830;29;20074;-76
2021/08/08 09:52:26;;;;;;;4.47;1.60;;;;;;;;;;4941074;28;20063;-74
2021/08/08 09:54:56;;;;;;;3.63;1.80;;;;;;;;;;4939974;28;20071;-73
2021/08/08 09:57:22;;;;;;;2.65;1.65;;;;;;;;;;4940876;28;20062;-75
2021/08/08 09:59:49;;;;;;;3.85;1.60;;;;;;;;;;4940275;28;20063;-75
2021/08/08 10:02:20;;;;;;;4.18;1.80;;;;;;;;;;4927833;29;20067;-74
2021/08/08 10:04:48;;;;;;;4.53;1.70;;;;;;;;;;4938658;29;20639;-74
2021/08/08 10:07:16;;;;;;;4.18;1.65;;;;;;;;;;4941976;29;20519;-73
2021/08/08 10:09:44;;;;;;;2.67;1.10;;;;;;;;;;4943333;28;20042;-74
2021/08/08 10:12:28;;;;;;;3.25;1.40;;;;;;;;;;4941632;28;20507;-73
2021/08/08 10:14:55;;;;;;;3.13;1.55;;;;;;;;;;4937299;28;20063;-73
2021/08/08 10:17:21;;;;;;;3.38;1.80;;;;;;;;;;4929922;28;20059;-75
2021/08/08 10:19:52;;;;;;;4.28;1.50;;;;;;;;;;4945789;28;20110;-75
2021/08/08 10:22:19;;;;;;;3.72;1.70;;;;;;;;;;4945773;28;20081;-75
2021/08/08 10:24:47;;;;;;;3.90;1.65;;;;;;;;;;4948597;29;20039;-75
2021/08/08 10:27:21;;;;;;;2.78;1.23;;;;;;;;;;4946139;28;21372;-75
2021/08/08 10:29:48;;;;;;;3.70;1.67;;;;;;;;;;4943288;29;20090;-75
2021/08/08 10:32:15;;;;;;;2.38;1.00;;;;;;;;;;4929718;29;20141;-74
2021/08/08 10:34:41;;;;;;;2.65;1.45;;;;;;;;;;4945274;28;20055;-75
2021/08/08 10:37:15;;;;;;;2.30;1.00;;;;;;;;;;4942007;28;20055;-74
2021/08/08 10:39:43;;;;;;;3.28;1.15;;;;;;;;;;4943427;29;20051;-74
2021/08/08 10:42:10;;;;;;;2.92;0.93;;;;;;;;;;4942295;29;20448;-74
2021/08/08 10:44:46;;;;;;;3.90;1.35;;;;;;;;;;4931997;29;20897;-75
2021/08/08 10:47:23;;;;;;;3.78;1.33;;;;;;;;;;4951870;28;20079;-73
2021/08/08 10:49:50;;;;;;;2.25;1.20;;;;;;;;;;4942130;28;20134;-73
2021/08/08 10:52:16;;;;;;;2.72;1.20;;;;;;;;;;4953538;28;20032;-79
2021/08/08 10:54:46;;;;;;;5.57;1.23;;;;;;;;;;4960819;28;20075;-77
2021/08/08 10:57:16;;;;;;;6.30;1.30;;;;;;;;;;4954666;28;21021;-76
2021/08/08 10:59:44;;;;;;;1.98;1.00;;;;;;;;;;4951593;28;20039;-76
2021/08/08 11:02:23;;;;;;;1.55;1.10;;;;;;;;;;4947253;28;20066;-77
2021/08/08 11:04:51;;;;;;;2.00;1.05;;;;;;;;;;4945240;28;20075;-75
2021/08/08 11:07:25;;;;;;;1.95;1.20;;;;;;;;;;4946529;28;20231;-74
2021/08/08 11:09:51;;;;;;;4.45;0.90;;;;;;;;;;4943543;28;20067;-75
2021/08/08 11:12:30;;;;;;;2.33;1.10;;;;;;;;;;4945411;28;20790;-74
2021/08/08 11:14:56;;;;;;;2.20;0.95;;;;;;;;;;4944755;28;20499;-75
2021/08/08 11:17:25;;;;;;;2.25;0.95;;;;;;;;;;4944175;29;20146;-76
2021/08/08 11:19:52;;;;;;;2.22;1.10;;;;;;;;;;4948178;28;20150;-77
2021/08/08 11:22:19;;;;;;;1.52;0.80;;;;;;;;;;4942794;28;20067;-75
2021/08/08 11:25:15;;;;;;;1.15;0.80;;;;;;;;;;4945292;28;20066;-75
2021/08/08 11:27:43;;;;;;;2.40;1.02;;;;;;;;;;4926245;28;21183;-75
2021/08/08 11:30:11;;;;;;;1.80;0.80;;;;;;;;;;4945115;28;20055;-75
2021/08/08 11:32:38;;;;;;;2.63;0.90;;;;;;;;;;4944900;29;20067;-76
2021/08/08 11:35:06;;;;;;;1.35;0.80;;;;;;;;;;4944713;28;20067;-75
2021/08/08 11:37:33;;;;;;;1.88;1.02;;;;;;;;;;4945503;28;20086;-75
2021/08/08 11:39:59;;;;;;;3.05;1.10;;;;;;;;;;4941646;28;20097;-74
2021/08/08 11:42:30;;;;;;;1.65;1.00;;;;;;;;;;4942830;28;20046;-75
2021/08/08 11:44:57;;;;;;;1.98;1.17;;;;;;;;;;4942915;28;20177;-75
2021/08/08 11:47:25;;;;;;;1.75;0.93;;;;;;;;;;4926991;29;20456;-75
2021/08/08 11:49:51;;;;;;;4.32;1.02;;;;;;;;;;4942425;29;20059;-76
2021/08/08 11:52:18;;;;;;;1.88;0.90;;;;;;;;;;4941757;28;20075;-75
2021/08/08 11:54:46;;;;;;;2.38;1.00;;;;;;;;;;4944474;29;20063;-75
2021/08/08 11:57:23;;;;;;;3.17;1.00;;;;;;;;;;4926655;28;20122;-74
2021/08/08 11:59:50;;;;;;;2.10;0.80;;;;;;;;;;4940833;28;20187;-75
2021/08/08 12:02:18;;;;;;;2.42;0.90;;;;;;;;;;4929233;28;20213;-75
2021/08/08 12:04:44;;;;;;;2.35;1.05;;;;;;;;;;4940607;28;20595;-75
2021/08/08 12:07:11;;;;;;;1.70;0.90;;;;;;;;;;4941293;28;20043;-75
2021/08/08 12:09:38;;;;;;;2.10;0.95;;;;;;;;;;4943004;29;20063;-75
2021/08/08 12:12:06;;;;;;;2.15;0.90;;;;;;;;;;4941565;28;20059;-75
2021/08/08 12:14:34;;;;;;;1.55;0.88;;;;;;;;;;4941948;29;20059;-75
2021/08/08 12:17:06;;;;;;;1.52;0.70;;;;;;;;;;4933543;28;20582;-74
2021/08/08 12:19:33;;;;;;;1.40;0.90;;;;;;;;;;4943015;29;20141;-74
2021/08/08 12:22:04;;;;;;;3.05;1.13;;;;;;;;;;4947924;28;20070;-75
2021/08/08 12:24:35;;;;;;;2.15;0.95;;;;;;;;;;4944043;28;20062;-75
2021/08/08 12:27:02;;;;;;;1.87;1.00;;;;;;;;;;4935803;29;20125;-75
2021/08/08 12:29:33;;;;;;;4.30;1.00;;;;;;;;;;4930135;29;20779;-75
2021/08/08 12:32:06;;;;;;;2.58;0.90;;;;;;;;;;4945977;28;20090;-75
2021/08/08 12:34:33;;;;;;;1.90;1.00;;;;;;;;;;4950252;29;20039;-74
2021/08/08 12:37:04;;;;;;;1.60;0.95;;;;;;;;;;4946148;29;20063;-75
2021/08/08 12:39:30;;;;;;;2.28;1.00;;;;;;;;;;4949018;29;20031;-75
2021/08/08 12:41:57;;;;;;;1.98;1.15;;;;;;;;;;4958483;29;20082;-85
2021/08/08 12:44:34;;;;;;;2.88;1.00;;;;;;;;;;4954692;29;21066;-85
2021/08/08 12:47:01;;;;;;;2.60;1.00;;;;;;;;;;4956863;29;20063;-83
2021/08/08 12:49:35;;;;;;;4.32;1.20;;;;;;;;;;4961767;28;20039;-85
2021/08/08 12:52:03;;;;;;;2.08;0.85;;;;;;;;;;4953566;29;20024;-84
2021/08/08 12:54:29;;;;;;;2.20;0.88;;;;;;;;;;4948524;29;20031;-82
2021/08/08 12:56:58;;;;;;;3.58;1.33;;;;;;;;;;4951741;28;20326;-87
2021/08/08 12:59:33;;;;;;;2.65;1.10;;;;;;;;;;4958446;28;20073;-82
2021/08/08 13:02:00;;;;;;;3.95;1.20;;;;;;;;;;4955276;29;20523;-80
2021/08/08 13:04:26;;;;;;;3.90;1.10;;;;;;;;;;4955520;29;20034;-83
2021/08/08 13:06:52;;;;;;;3.22;0.90;;;;;;;;;;4951277;29;20071;-89
2021/08/08 13:09:19;;;;;;;2.30;1.00;;;;;;;;;;4952909;29;20035;-87
2021/08/08 13:11:48;;;;;;;3.47;1.20;;;;;;;;;;4957979;29;20094;-88
2021/08/08 13:14:15;;;;;;;2.38;1.30;;;;;;;;;;4956486;29;20360;-88
2021/08/08 13:16:41;;;;;;;2.90;1.10;;;;;;;;;;4959215;28;20381;-84
2021/08/08 13:19:08;;;;;;;3.00;1.08;;;;;;;;;;4937971;29;20043;-82
2021/08/08 13:21:35;;;;;;;2.00;0.93;;;;;;;;;;4947218;29;20075;-83
2021/08/08 13:24:02;;;;;;;2.72;1.13;;;;;;;;;;4952044;28;20035;-89
2021/08/08 13:26:31;;;;;;;2.80;1.05;;;;;;;;;;4951246;29;20035;-90
2021/08/08 13:28:57;;;;;;;1.80;1.13;;;;;;;;;;4956485;28;20027;-88
2021/08/08 13:31:24;;;;;;;2.30;1.20;;;;;;;;;;4945402;29;20114;-86
2021/08/08 13:33:50;;;;;;;2.00;1.15;;;;;;;;;;4948651;29;20048;-89
2021/08/08 13:36:20;;;;;;;2.63;1.40;;;;;;;;;;4960590;28;20102;-85
2021/08/08 13:38:47;;;;;;;2.20;1.10;;;;;;;;;;4960506;29;20039;-90
2021/08/08 13:41:13;;;;;;;1.58;1.08;;;;;;;;;;4928350;29;20063;-82
2021/08/08 13:43:39;;;;;;;3.55;1.10;;;;;;;;;;4963232;28;20027;-81
2021/08/08 13:46:06;;;;;;;2.35;1.30;;;;;;;;;;4960789;28;20047;-79
2021/08/08 13:48:32;;;;;;;3.40;1.23;;;;;;;;;;4942563;28;20059;-83
2021/08/08 13:51:02;;;;;;;3.35;1.40;;;;;;;;;;4950799;28;20348;-82
2021/08/08 13:53:29;;;;;;;3.45;1.70;;;;;;;;;;4949883;28;20042;-80
2021/08/08 13:55:55;;;;;;;3.67;1.30;;;;;;;;;;4959786;28;20055;-80
2021/08/08 13:58:22;;;;;;;2.55;1.30;;;;;;;;;;4963623;28;20043;-80
2021/08/08 14:00:48;;;;;;;2.10;1.33;;;;;;;;;;4945645;29;20099;-81
2021/08/08 14:03:18;;;;;;;3.50;1.35;;;;;;;;;;4965287;28;20039;-84
2021/08/08 14:05:45;;;;;;;2.28;1.30;;;;;;;;;;4957069;28;20027;-83
2021/08/08 14:08:11;;;;;;;2.42;1.40;;;;;;;;;;4955611;28;20042;-82
2021/08/08 14:10:38;;;;;;;3.13;1.50;;;;;;;;;;4964273;28;20070;-79
2021/08/08 14:13:04;;;;;;;3.72;1.33;;;;;;;;;;4956357;28;20054;-81
2021/08/08 14:15:32;;;;;;;4.20;1.50;;;;;;;;;;4957579;28;20039;-81
2021/08/08 14:17:59;;;;;;;2.92;1.25;;;;;;;;;;4926917;28;20455;-81
2021/08/08 14:20:25;;;;;;;1.60;1.10;;;;;;;;;;4956462;28;20696;-81
2021/08/08 14:22:52;;;;;;;3.42;1.48;;;;;;;;;;4956811;29;20040;-81
2021/08/08 14:25:18;;;;;;;6.13;1.70;;;;;;;;;;4957221;28;20023;-81
2021/08/08 14:27:45;;;;;;;3.45;1.40;;;;;;;;;;4943033;28;20137;-81
2021/08/08 14:30:11;;;;;;;2.78;1.40;;;;;;;;;;4942632;29;20078;-81
2021/08/08 14:32:38;;;;;;;3.85;1.77;;;;;;;;;;4944377;28;20059;-82
2021/08/08 14:35:07;;;;;;;4.45;1.63;;;;;;;;;;4945852;28;20063;-82
2021/08/08 14:37:33;;;;;;;4.32;1.70;;;;;;;;;;4910748;29;20023;-79
2021/08/08 14:40:02;;;;;;;4.88;2.20;;;;;;;;;;4925845;28;20878;-80
2021/08/08 14:42:29;;;;;;;3.35;1.90;;;;;;;;;;4940844;28;20613;-80
2021/08/08 14:44:55;;;;;;;4.38;1.77;;;;;;;;;;4940822;28;20065;-80